Time;durP1;ratioP1;P1;durP2;ratioP2;P2;SDS_P1;SDS_P2;PMS_P1;PMS_P2;Temp;Humidity;BMP_temperature;BMP_pressure;BME280_temperature;BME280_humidity;BME280_pressure;Samples;Min_cycle;Max_cycle;Signal;HPM_P1;HPM_P2
2023/10/21 00:00:23;;;;;;;1.10;1.10;;;12.70;99.90;;;;;;456896;259;28899;-72
2023/10/21 00:02:24;;;;;;;2.17;1.30;;;12.70;99.90;;;;;;456941;259;28536;-72
2023/10/21 00:04:26;;;;;;;1.50;1.40;;;12.70;99.90;;;;;;456926;259;28938;-72
2023/10/21 00:06:27;;;;;;;1.10;1.10;;;12.70;99.90;;;;;;456884;259;28933;-73
2023/10/21 00:08:28;;;;;;;1.33;1.10;;;12.70;99.90;;;;;;456930;259;28483;-73
2023/10/21 00:10:29;;;;;;;1.20;1.10;;;12.70;99.90;;;;;;456913;259;29017;-72
2023/10/21 00:12:31;;;;;;;2.80;1.00;;;12.70;99.90;;;;;;456913;259;28472;-71
2023/10/21 00:14:32;;;;;;;2.03;1.37;;;12.70;99.90;;;;;;456933;259;28529;-73
2023/10/21 00:16:33;;;;;;;1.00;1.00;;;12.70;99.90;;;;;;456938;259;28956;-72
2023/10/21 00:18:34;;;;;;;0.90;0.90;;;12.80;99.90;;;;;;456913;259;29010;-72
2023/10/21 00:20:36;;;;;;;1.27;1.20;;;12.70;99.90;;;;;;456928;259;30132;-72
2023/10/21 00:22:37;;;;;;;1.73;1.20;;;12.70;99.90;;;;;;456973;259;29448;-72
2023/10/21 00:24:38;;;;;;;0.83;0.83;;;12.70;99.90;;;;;;456963;255;28394;-73
2023/10/21 00:26:39;;;;;;;1.20;1.10;;;12.70;99.90;;;;;;456759;256;28537;-72
2023/10/21 00:28:41;;;;;;;0.90;0.90;;;12.70;99.90;;;;;;456935;259;28539;-72
2023/10/21 00:30:45;;;;;;;0.80;0.80;;;12.70;99.90;;;;;;456963;259;28400;-72
2023/10/21 00:32:43;;;;;;;2.00;0.83;;;12.70;99.90;;;;;;456898;259;28953;-72
2023/10/21 00:34:44;;;;;;;1.73;1.00;;;12.70;99.90;;;;;;456950;259;28265;-73
2023/10/21 00:36:46;;;;;;;2.37;1.10;;;12.70;99.90;;;;;;456961;259;28722;-72
2023/10/21 00:38:47;;;;;;;0.90;0.90;;;12.70;99.90;;;;;;456994;259;28999;-72
2023/10/21 00:40:49;;;;;;;1.80;0.70;;;12.70;99.90;;;;;;456902;259;29819;-72
2023/10/21 00:42:49;;;;;;;5.90;0.80;;;12.70;99.90;;;;;;456966;256;28659;-72
2023/10/21 00:44:51;;;;;;;0.70;0.70;;;12.70;99.90;;;;;;456975;259;29150;-73
2023/10/21 00:46:52;;;;;;;0.70;0.70;;;12.70;99.90;;;;;;456969;259;28560;-72
2023/10/21 00:48:53;;;;;;;0.70;0.70;;;12.70;99.90;;;;;;456939;260;28661;-72
2023/10/21 00:50:54;;;;;;;0.70;0.70;;;12.70;99.90;;;;;;456774;260;28433;-72
2023/10/21 00:52:56;;;;;;;2.73;0.80;;;12.70;99.90;;;;;;456723;260;28575;-71
2023/10/21 00:54:57;;;;;;;0.70;0.70;;;12.70;99.90;;;;;;456933;259;28472;-73
2023/10/21 00:56:58;;;;;;;4.10;0.70;;;12.70;99.90;;;;;;456915;259;28966;-72
2023/10/21 00:58:59;;;;;;;0.80;0.80;;;12.70;99.90;;;;;;456926;259;28708;-72
2023/10/21 01:01:06;;;;;;;0.80;0.70;;;12.70;99.90;;;;;;456956;259;28661;-72
2023/10/21 01:03:02;;;;;;;1.53;1.00;;;12.70;99.90;;;;;;456746;260;28298;-72
2023/10/21 01:05:03;;;;;;;1.03;0.80;;;12.60;99.90;;;;;;456931;259;29468;-71
2023/10/21 01:07:05;;;;;;;1.13;0.90;;;12.60;99.90;;;;;;456914;255;29417;-72
2023/10/21 01:09:06;;;;;;;0.90;0.87;;;12.70;99.90;;;;;;456982;259;28649;-72
2023/10/21 01:11:07;;;;;;;0.70;0.70;;;12.60;99.90;;;;;;457009;259;29102;-72
2023/10/21 01:13:08;;;;;;;0.93;0.70;;;12.60;99.90;;;;;;456987;259;28604;-71
2023/10/21 01:15:09;;;;;;;0.73;0.70;;;12.60;99.90;;;;;;456976;259;28646;-72
2023/10/21 01:17:11;;;;;;;1.63;0.90;;;12.70;99.90;;;;;;456968;259;28143;-72
2023/10/21 01:19:13;;;;;;;0.70;0.70;;;12.60;99.90;;;;;;456957;259;28609;-71
2023/10/21 01:21:13;;;;;;;2.13;0.70;;;12.60;99.90;;;;;;456941;259;28462;-72
2023/10/21 01:23:15;;;;;;;0.63;0.63;;;12.60;99.90;;;;;;456986;259;28512;-72
2023/10/21 01:25:16;;;;;;;1.20;0.90;;;12.60;99.90;;;;;;456946;259;28622;-72
2023/10/21 01:27:17;;;;;;;0.80;0.80;;;12.60;99.90;;;;;;456942;259;29228;-72
2023/10/21 01:29:18;;;;;;;0.83;0.83;;;12.60;99.90;;;;;;456942;259;28987;-72
2023/10/21 01:31:21;;;;;;;0.80;0.80;;;12.50;99.90;;;;;;456947;259;28847;-72
2023/10/21 01:33:21;;;;;;;1.50;1.00;;;12.60;99.90;;;;;;456890;259;28147;-71
2023/10/21 01:35:22;;;;;;;4.00;0.90;;;12.50;99.90;;;;;;456909;259;28608;-71
2023/10/21 01:37:23;;;;;;;2.83;0.90;;;12.50;99.90;;;;;;456921;259;28449;-73
2023/10/21 01:39:24;;;;;;;0.87;0.87;;;12.50;99.90;;;;;;456936;259;28626;-72
2023/10/21 01:41:26;;;;;;;0.90;0.90;;;12.50;99.90;;;;;;456946;259;28350;-71
2023/10/21 01:43:27;;;;;;;1.20;0.90;;;12.50;99.90;;;;;;456951;259;28585;-71
2023/10/21 01:45:28;;;;;;;0.93;0.93;;;12.50;99.90;;;;;;456910;259;28937;-71
2023/10/21 01:47:31;;;;;;;0.70;0.70;;;;;;;;;;456913;259;28997;-71
2023/10/21 01:49:32;;;;;;;1.17;1.07;;;12.50;99.90;;;;;;456903;260;26975;-72
2023/10/21 01:51:33;;;;;;;2.10;1.00;;;12.50;99.90;;;;;;456907;259;28206;-71
2023/10/21 01:53:34;;;;;;;0.90;0.90;;;12.50;99.90;;;;;;456916;260;29013;-72
2023/10/21 01:55:36;;;;;;;1.20;1.10;;;12.50;99.90;;;;;;456912;259;28512;-72
2023/10/21 01:57:37;;;;;;;1.17;1.10;;;12.40;99.90;;;;;;456908;259;28626;-72
2023/10/21 01:59:38;;;;;;;2.60;1.20;;;12.40;99.90;;;;;;456918;259;28539;-72
2023/10/21 02:01:39;;;;;;;1.07;1.07;;;12.40;99.90;;;;;;456950;258;29475;-74
2023/10/21 02:03:43;;;;;;;1.47;1.20;;;12.40;99.90;;;;;;456983;259;28607;-72
2023/10/21 02:05:45;;;;;;;1.20;1.10;;;12.50;99.90;;;;;;456996;259;28147;-71
2023/10/21 02:07:46;;;;;;;1.00;1.00;;;12.40;99.90;;;;;;456973;259;28422;-72
2023/10/21 02:09:48;;;;;;;1.30;1.20;;;12.40;99.90;;;;;;456974;259;29033;-71
2023/10/21 02:11:48;;;;;;;1.13;1.03;;;12.50;99.90;;;;;;456888;259;29081;-72
2023/10/21 02:13:50;;;;;;;1.20;1.10;;;12.40;99.90;;;;;;456968;259;29144;-73
2023/10/21 02:15:51;;;;;;;0.90;0.90;;;12.50;99.90;;;;;;456987;259;28856;-72
2023/10/21 02:17:52;;;;;;;1.43;0.90;;;12.50;99.90;;;;;;456958;256;29013;-72
2023/10/21 02:19:56;;;;;;;1.00;1.00;;;12.50;99.90;;;;;;456955;259;28970;-72
2023/10/21 02:21:55;;;;;;;1.00;1.00;;;12.50;99.90;;;;;;456967;259;28458;-72
2023/10/21 02:23:56;;;;;;;2.13;1.30;;;12.50;99.90;;;;;;456957;259;28647;-73
2023/10/21 02:25:57;;;;;;;2.00;1.20;;;12.50;99.90;;;;;;456964;259;28389;-72
2023/10/21 02:27:59;;;;;;;2.20;1.40;;;12.50;99.90;;;;;;456958;259;28748;-71
2023/10/21 02:30:00;;;;;;;1.50;1.40;;;12.50;99.90;;;;;;456977;259;28585;-73
2023/10/21 02:32:01;;;;;;;4.00;1.07;;;12.50;99.90;;;;;;456957;259;28607;-71
2023/10/21 02:34:02;;;;;;;1.50;1.50;;;12.50;99.90;;;;;;456968;259;28564;-72
2023/10/21 02:36:04;;;;;;;1.50;1.40;;;12.50;99.90;;;;;;456951;259;29482;-71
2023/10/21 02:38:05;;;;;;;1.40;1.40;;;12.50;99.90;;;;;;456970;259;29011;-72
2023/10/21 02:40:06;;;;;;;1.90;1.80;;;12.50;99.90;;;;;;456971;259;28675;-73
2023/10/21 02:42:07;;;;;;;2.60;2.50;;;12.50;99.90;;;;;;456967;259;28622;-72
2023/10/21 02:44:09;;;;;;;3.03;2.93;;;12.50;99.90;;;;;;456933;259;28193;-72
2023/10/21 02:46:10;;;;;;;3.50;3.20;;;12.50;99.90;;;;;;456987;259;28552;-71
2023/10/21 02:48:11;;;;;;;6.27;5.87;;;12.50;99.90;;;;;;456941;259;28530;-72
2023/10/21 02:50:12;;;;;;;1.93;1.83;;;12.50;99.90;;;;;;456934;259;28757;-72
2023/10/21 02:52:14;;;;;;;2.13;1.93;;;12.50;99.90;;;;;;456949;259;28640;-72
2023/10/21 02:54:16;;;;;;;1.10;1.10;;;12.50;99.90;;;;;;456948;259;28677;-72
2023/10/21 02:56:16;;;;;;;1.00;1.00;;;12.50;99.90;;;;;;456939;259;28409;-72
2023/10/21 02:58:17;;;;;;;1.77;1.07;;;12.50;99.90;;;;;;456922;259;29097;-71
2023/10/21 03:00:21;;;;;;;1.07;1.07;;;12.50;99.90;;;;;;456899;259;28924;-72
2023/10/21 03:02:20;;;;;;;1.43;1.33;;;12.50;99.90;;;;;;456866;259;29237;-72
2023/10/21 03:04:21;;;;;;;1.20;1.10;;;12.50;99.90;;;;;;456934;259;29043;-71
2023/10/21 03:06:22;;;;;;;1.37;1.20;;;12.60;99.90;;;;;;456922;259;28247;-72
2023/10/21 03:08:24;;;;;;;1.33;1.27;;;12.60;99.90;;;;;;456956;259;28237;-71
2023/10/21 03:10:25;;;;;;;1.80;1.10;;;12.60;99.90;;;;;;456951;259;28508;-72
2023/10/21 03:12:26;;;;;;;1.03;1.03;;;12.60;99.90;;;;;;456924;259;28651;-71
2023/10/21 03:14:28;;;;;;;1.00;1.00;;;12.50;99.90;;;;;;456921;259;28561;-71
2023/10/21 03:16:29;;;;;;;1.20;1.20;;;12.50;99.90;;;;;;456933;259;28607;-72
2023/10/21 03:18:30;;;;;;;1.90;1.50;;;12.50;99.90;;;;;;456886;260;28789;-71
2023/10/21 03:20:31;;;;;;;2.90;1.10;;;12.50;99.90;;;;;;456939;260;28474;-72
2023/10/21 03:22:32;;;;;;;3.60;1.20;;;12.50;99.90;;;;;;456921;259;30216;-71
2023/10/21 03:24:34;;;;;;;1.80;1.07;;;12.50;99.90;;;;;;456906;259;28738;-71
2023/10/21 03:26:35;;;;;;;1.77;1.03;;;12.50;99.90;;;;;;456935;259;28890;-71
2023/10/21 03:28:38;;;;;;;1.47;1.10;;;12.50;99.90;;;;;;456909;259;28284;-71
2023/10/21 03:30:37;;;;;;;0.90;0.90;;;12.50;99.90;;;;;;456899;259;28537;-72
2023/10/21 03:32:39;;;;;;;1.47;1.33;;;12.60;99.90;;;;;;456878;259;28365;-71
2023/10/21 03:34:40;;;;;;;1.30;1.20;;;12.50;99.90;;;;;;456953;259;28982;-71
2023/10/21 03:36:41;;;;;;;0.90;0.90;;;12.50;99.90;;;;;;456976;259;28395;-72
2023/10/21 03:38:42;;;;;;;2.13;1.20;;;12.50;99.90;;;;;;456977;259;28705;-71
2023/10/21 03:40:44;;;;;;;1.00;0.97;;;12.50;99.90;;;;;;456869;260;28558;-71
2023/10/21 03:42:45;;;;;;;1.00;1.00;;;12.50;99.90;;;;;;456977;259;28477;-73
2023/10/21 03:44:46;;;;;;;0.80;0.80;;;12.50;99.90;;;;;;456973;259;28728;-71
2023/10/21 03:46:47;;;;;;;1.60;1.00;;;12.50;99.90;;;;;;456915;255;29250;-72
2023/10/21 03:48:49;;;;;;;1.80;1.10;;;12.50;99.90;;;;;;456947;259;28682;-71
2023/10/21 03:50:50;;;;;;;2.30;1.17;;;12.50;99.90;;;;;;456920;259;29252;-72
2023/10/21 03:52:51;;;;;;;1.43;1.27;;;12.50;99.90;;;;;;456914;257;28351;-72
2023/10/21 03:54:52;;;;;;;1.40;1.30;;;12.50;99.90;;;;;;456953;259;28946;-71
2023/10/21 03:56:54;;;;;;;1.37;1.10;;;12.50;99.90;;;;;;456865;259;28422;-71
2023/10/21 03:58:55;;;;;;;1.87;1.10;;;12.50;99.90;;;;;;456958;259;28438;-71
2023/10/21 04:00:59;;;;;;;1.60;1.50;;;12.50;99.90;;;;;;456918;259;28481;-71
2023/10/21 04:02:58;;;;;;;1.40;1.30;;;12.50;99.90;;;;;;456765;260;29035;-71
2023/10/21 04:04:59;;;;;;;2.57;2.23;;;12.50;99.90;;;;;;456971;259;28763;-71
2023/10/21 04:07:00;;;;;;;3.50;3.30;;;12.50;99.90;;;;;;456974;259;28510;-71
2023/10/21 04:09:01;;;;;;;4.30;2.27;;;12.50;99.90;;;;;;456969;259;28963;-72
2023/10/21 04:11:02;;;;;;;2.10;1.20;;;12.50;99.90;;;;;;456981;259;29128;-71
2023/10/21 04:13:05;;;;;;;2.10;1.47;;;;;;;;;;456893;259;28921;-71
2023/10/21 04:15:07;;;;;;;4.10;3.87;;;12.50;99.90;;;;;;456921;260;27453;-72
2023/10/21 04:17:09;;;;;;;7.00;5.77;;;12.50;99.90;;;;;;456910;259;28560;-71
2023/10/21 04:19:10;;;;;;;1.87;1.77;;;12.50;99.90;;;;;;456948;259;28765;-71
2023/10/21 04:21:11;;;;;;;4.60;1.50;;;12.50;99.90;;;;;;456953;260;28468;-72
2023/10/21 04:23:13;;;;;;;1.70;1.60;;;12.50;99.90;;;;;;456950;259;29250;-71
2023/10/21 04:25:14;;;;;;;1.27;1.10;;;12.40;99.90;;;;;;456947;259;28968;-71
2023/10/21 04:27:15;;;;;;;2.13;1.17;;;12.40;99.90;;;;;;456965;259;30518;-71
2023/10/21 04:29:16;;;;;;;1.73;1.00;;;12.40;99.90;;;;;;456953;259;28065;-71
2023/10/21 04:31:18;;;;;;;1.17;1.17;;;12.40;99.90;;;;;;456865;259;28402;-72
2023/10/21 04:33:19;;;;;;;1.43;0.87;;;12.40;99.90;;;;;;456918;259;28341;-71
2023/10/21 04:35:20;;;;;;;0.80;0.80;;;12.40;99.90;;;;;;456930;259;28567;-72
2023/10/21 04:37:21;;;;;;;1.63;1.13;;;12.40;99.90;;;;;;456917;259;28324;-71
2023/10/21 04:39:23;;;;;;;0.90;0.90;;;12.40;99.90;;;;;;456937;259;28624;-71
2023/10/21 04:41:24;;;;;;;10.13;1.20;;;12.40;99.90;;;;;;456924;256;28562;-71
2023/10/21 04:43:25;;;;;;;1.13;0.90;;;12.40;99.90;;;;;;456938;259;28703;-71
2023/10/21 04:45:26;;;;;;;1.00;0.90;;;12.30;99.90;;;;;;456929;259;29191;-71
2023/10/21 04:47:29;;;;;;;0.80;0.80;;;;;;;;;;456959;255;28964;-71
2023/10/21 04:49:30;;;;;;;3.47;1.10;;;12.30;99.90;;;;;;456938;260;27504;-72
2023/10/21 04:51:31;;;;;;;0.90;0.90;;;12.30;99.90;;;;;;456928;259;28604;-71
2023/10/21 04:53:34;;;;;;;1.00;0.90;;;12.40;99.90;;;;;;456909;259;28507;-72
2023/10/21 04:55:34;;;;;;;0.93;0.93;;;12.40;99.90;;;;;;456918;259;28532;-72
2023/10/21 04:57:35;;;;;;;1.00;1.00;;;12.40;99.90;;;;;;456924;259;28857;-71
2023/10/21 04:59:38;;;;;;;0.80;0.80;;;12.30;99.90;;;;;;456939;259;29165;-71
2023/10/21 05:01:38;;;;;;;0.97;0.90;;;12.30;99.90;;;;;;456947;259;30841;-71
2023/10/21 05:03:39;;;;;;;1.20;0.90;;;12.30;99.90;;;;;;456975;259;28591;-71
2023/10/21 05:05:40;;;;;;;1.80;1.20;;;12.30;99.90;;;;;;456981;259;28326;-72
2023/10/21 05:07:41;;;;;;;3.07;1.40;;;12.30;99.90;;;;;;456989;259;28731;-71
2023/10/21 05:09:43;;;;;;;0.87;0.87;;;12.30;99.90;;;;;;456947;259;28416;-71
2023/10/21 05:11:44;;;;;;;1.50;1.07;;;12.30;99.90;;;;;;456915;258;28627;-71
2023/10/21 05:13:45;;;;;;;1.17;1.07;;;12.20;99.90;;;;;;456924;260;28459;-70
2023/10/21 05:15:46;;;;;;;0.90;0.90;;;12.20;99.90;;;;;;456945;259;28410;-71
2023/10/21 05:17:48;;;;;;;0.80;0.80;;;12.20;99.90;;;;;;456917;259;28641;-72
2023/10/21 05:19:49;;;;;;;0.97;0.93;;;12.10;99.90;;;;;;456929;259;28550;-71
2023/10/21 05:21:50;;;;;;;0.80;0.80;;;12.10;99.90;;;;;;456975;259;29123;-72
2023/10/21 05:23:53;;;;;;;0.80;0.80;;;12.00;99.90;;;;;;456998;259;28983;-71
2023/10/21 05:25:53;;;;;;;1.03;0.93;;;12.00;99.90;;;;;;456960;259;28887;-74
2023/10/21 05:27:54;;;;;;;0.80;0.80;;;11.90;99.90;;;;;;456956;259;28579;-72
2023/10/21 05:29:55;;;;;;;0.80;0.80;;;11.90;99.90;;;;;;456972;259;28515;-72
2023/10/21 05:31:56;;;;;;;1.20;1.10;;;11.90;99.90;;;;;;456999;259;28409;-71
2023/10/21 05:33:59;;;;;;;1.10;0.80;;;11.90;99.90;;;;;;456978;259;28256;-71
2023/10/21 05:35:59;;;;;;;1.93;1.00;;;11.90;99.90;;;;;;456924;259;28650;-71
2023/10/21 05:38:00;;;;;;;1.87;0.90;;;11.90;99.90;;;;;;456968;259;28831;-71
2023/10/21 05:40:04;;;;;;;0.80;0.80;;;11.90;99.90;;;;;;456970;259;28373;-71
2023/10/21 05:42:03;;;;;;;1.87;0.80;;;11.90;99.90;;;;;;456942;258;28556;-72
2023/10/21 05:44:04;;;;;;;1.33;0.90;;;11.80;99.90;;;;;;456899;259;28879;-71
2023/10/21 05:46:05;;;;;;;3.67;0.90;;;11.80;99.90;;;;;;456947;259;28937;-72
2023/10/21 05:48:06;;;;;;;0.80;0.80;;;11.80;99.90;;;;;;456946;259;29527;-74
2023/10/21 05:50:08;;;;;;;1.53;1.00;;;11.80;99.90;;;;;;456949;259;28341;-71
2023/10/21 05:52:09;;;;;;;2.10;0.90;;;11.80;99.90;;;;;;456948;259;28444;-72
2023/10/21 05:54:10;;;;;;;1.80;1.33;;;11.80;99.90;;;;;;456936;259;28607;-72
2023/10/21 05:56:12;;;;;;;1.00;1.00;;;11.80;99.90;;;;;;456948;259;28246;-72
2023/10/21 05:58:13;;;;;;;0.80;0.80;;;11.80;99.90;;;;;;456929;259;28337;-73
2023/10/21 06:00:14;;;;;;;1.10;1.00;;;11.90;99.90;;;;;;456926;259;28300;-71
2023/10/21 06:02:15;;;;;;;1.00;1.00;;;11.90;99.90;;;;;;456889;259;28474;-72
2023/10/21 06:04:16;;;;;;;1.00;0.97;;;11.90;99.90;;;;;;456813;260;28418;-71
2023/10/21 06:06:18;;;;;;;1.20;1.10;;;11.80;99.90;;;;;;456939;259;28375;-72
2023/10/21 06:08:19;;;;;;;2.57;1.30;;;11.80;99.90;;;;;;456957;259;28875;-73
2023/10/21 06:10:20;;;;;;;1.13;1.13;;;11.80;99.90;;;;;;456956;259;29518;-71
2023/10/21 06:12:21;;;;;;;1.40;1.40;;;11.80;99.90;;;;;;456956;259;28780;-72
2023/10/21 06:14:23;;;;;;;1.00;1.00;;;11.80;99.90;;;;;;456957;259;28772;-71
2023/10/21 06:16:25;;;;;;;3.40;1.63;;;11.80;99.90;;;;;;456950;259;28490;-71
2023/10/21 06:18:25;;;;;;;3.17;2.97;;;11.70;99.90;;;;;;456934;259;28480;-72
2023/10/21 06:20:27;;;;;;;1.90;1.80;;;11.80;99.90;;;;;;456961;259;28305;-72
2023/10/21 06:22:28;;;;;;;2.17;1.80;;;11.80;99.90;;;;;;456907;259;28327;-72
2023/10/21 06:24:29;;;;;;;5.90;5.40;;;11.80;99.90;;;;;;456966;259;28818;-73
2023/10/21 06:26:33;;;;;;;3.40;3.20;;;11.80;99.90;;;;;;456893;259;28374;-71
2023/10/21 06:28:32;;;;;;;5.17;4.77;;;11.80;99.90;;;;;;456555;260;28564;-72
2023/10/21 06:30:33;;;;;;;5.30;5.00;;;11.80;99.90;;;;;;456891;259;28410;-71
2023/10/21 06:32:34;;;;;;;4.40;4.00;;;11.90;99.90;;;;;;456889;259;28550;-71
2023/10/21 06:34:35;;;;;;;2.83;2.73;;;11.90;99.90;;;;;;456878;259;28933;-71
2023/10/21 06:36:37;;;;;;;2.90;2.00;;;11.90;99.90;;;;;;456924;259;28740;-72
2023/10/21 06:38:38;;;;;;;1.47;1.37;;;11.90;99.90;;;;;;456923;259;28442;-71
2023/10/21 06:40:39;;;;;;;5.80;5.30;;;11.80;99.90;;;;;;456926;259;28513;-72
2023/10/21 06:42:40;;;;;;;3.87;3.33;;;11.80;99.90;;;;;;456907;259;28444;-71
2023/10/21 06:44:42;;;;;;;5.20;4.70;;;11.90;99.90;;;;;;456977;259;28354;-73
2023/10/21 06:46:43;;;;;;;1.60;1.50;;;11.90;99.90;;;;;;456931;259;28368;-71
2023/10/21 06:48:44;;;;;;;1.43;1.33;;;11.90;99.90;;;;;;456953;259;28487;-72
2023/10/21 06:50:45;;;;;;;1.87;1.40;;;11.90;99.90;;;;;;456911;259;28399;-74
2023/10/21 06:52:47;;;;;;;2.03;1.90;;;11.90;99.90;;;;;;456934;255;28376;-71
2023/10/21 06:54:49;;;;;;;1.23;1.00;;;12.00;99.90;;;;;;456928;259;28589;-72
2023/10/21 06:56:49;;;;;;;1.50;1.40;;;12.00;99.90;;;;;;456889;259;29047;-71
2023/10/21 06:58:52;;;;;;;1.50;1.23;;;12.00;99.90;;;;;;456946;259;29560;-72
2023/10/21 07:00:53;;;;;;;5.90;1.43;;;12.00;99.90;;;;;;456941;259;28820;-73
2023/10/21 07:02:55;;;;;;;1.17;1.17;;;11.90;99.90;;;;;;456888;259;28306;-72
2023/10/21 07:04:56;;;;;;;2.80;1.20;;;11.90;99.90;;;;;;456914;259;29228;-72
2023/10/21 07:06:57;;;;;;;1.10;1.10;;;11.90;99.90;;;;;;456911;259;28867;-72
2023/10/21 07:08:58;;;;;;;3.87;1.50;;;11.90;99.90;;;;;;456935;259;28815;-71
2023/10/21 07:11:00;;;;;;;1.37;0.97;;;11.90;99.90;;;;;;456931;259;29752;-71
2023/10/21 07:13:01;;;;;;;1.57;0.90;;;12.00;99.90;;;;;;456975;259;28434;-71
2023/10/21 07:15:02;;;;;;;3.10;1.03;;;12.00;99.90;;;;;;456921;259;28636;-73
2023/10/21 07:17:03;;;;;;;1.63;1.00;;;12.00;99.90;;;;;;456918;259;28489;-72
2023/10/21 07:19:05;;;;;;;1.50;1.07;;;12.00;99.90;;;;;;456891;259;28498;-72
2023/10/21 07:21:06;;;;;;;3.80;1.00;;;11.90;99.90;;;;;;456903;259;28807;-73
2023/10/21 07:23:12;;;;;;;0.80;0.80;;;11.90;99.90;;;;;;456949;259;28306;-71
2023/10/21 07:25:10;;;;;;;2.00;1.37;;;11.90;99.90;;;;;;456630;260;28733;-72
2023/10/21 07:27:10;;;;;;;1.27;1.17;;;11.90;99.90;;;;;;456926;259;28525;-72
2023/10/21 07:29:12;;;;;;;1.37;1.00;;;11.90;99.90;;;;;;456938;259;28991;-72
2023/10/21 07:31:14;;;;;;;2.57;1.20;;;12.00;99.90;;;;;;456913;259;28164;-72
2023/10/21 07:33:14;;;;;;;2.10;1.20;;;12.00;99.90;;;;;;456890;259;28655;-72
2023/10/21 07:35:16;;;;;;;3.00;1.20;;;12.00;99.90;;;;;;456879;259;28748;-72
2023/10/21 07:37:17;;;;;;;1.60;1.10;;;12.00;99.90;;;;;;456920;259;29554;-72
2023/10/21 07:39:18;;;;;;;2.87;1.20;;;12.10;99.90;;;;;;456942;259;28901;-72
2023/10/21 07:41:19;;;;;;;3.33;1.20;;;12.20;99.90;;;;;;456913;259;28893;-72
2023/10/21 07:43:20;;;;;;;1.70;0.90;;;12.10;99.90;;;;;;456864;259;28288;-73
2023/10/21 07:45:22;;;;;;;1.43;1.23;;;12.20;99.90;;;;;;456855;259;28809;-71
2023/10/21 07:47:23;;;;;;;10.37;2.03;;;12.30;99.90;;;;;;456820;259;28536;-72
2023/10/21 07:49:24;;;;;;;2.50;1.07;;;12.30;99.90;;;;;;456943;259;28793;-74
2023/10/21 07:51:25;;;;;;;8.97;1.87;;;12.30;99.90;;;;;;456950;259;28968;-72
2023/10/21 07:53:27;;;;;;;1.07;0.97;;;12.30;99.90;;;;;;456888;259;28537;-72
2023/10/21 07:55:28;;;;;;;1.93;1.10;;;12.40;99.90;;;;;;456888;259;29397;-72
2023/10/21 07:57:30;;;;;;;4.93;1.10;;;12.40;99.90;;;;;;456930;259;28746;-72
2023/10/21 07:59:30;;;;;;;1.63;1.10;;;12.40;99.90;;;;;;456924;259;28758;-73
2023/10/21 08:01:32;;;;;;;2.43;1.00;;;12.50;99.90;;;;;;456930;259;28687;-72
2023/10/21 08:03:34;;;;;;;1.17;1.00;;;12.40;99.90;;;;;;456924;259;28654;-73
2023/10/21 08:05:34;;;;;;;2.37;1.10;;;12.40;99.90;;;;;;456941;259;28610;-72
2023/10/21 08:07:35;;;;;;;1.77;1.20;;;12.40;99.90;;;;;;456929;259;28273;-72
2023/10/21 08:09:38;;;;;;;1.27;1.10;;;12.40;99.90;;;;;;456928;259;28185;-72
2023/10/21 08:11:38;;;;;;;1.40;1.30;;;12.40;99.90;;;;;;456755;260;28706;-72
2023/10/21 08:13:39;;;;;;;2.27;1.10;;;12.40;99.90;;;;;;456916;259;28487;-72
2023/10/21 08:15:40;;;;;;;2.40;1.30;;;12.40;99.90;;;;;;456921;259;28893;-74
2023/10/21 08:17:42;;;;;;;1.30;1.10;;;12.50;99.90;;;;;;456928;259;28775;-72
2023/10/21 08:19:47;;;;;;;1.57;1.20;;;;;;;;;;456929;259;28927;-71
2023/10/21 08:21:45;;;;;;;5.33;1.87;;;12.40;99.90;;;;;;456764;260;26688;-72
2023/10/21 08:23:48;;;;;;;2.00;1.30;;;;;;;;;;456958;259;29406;-71
2023/10/21 08:25:49;;;;;;;3.03;1.30;;;12.50;99.90;;;;;;456968;260;27074;-72
2023/10/21 08:27:50;;;;;;;1.13;1.03;;;12.60;99.90;;;;;;456911;259;28614;-72
2023/10/21 08:29:53;;;;;;;1.47;1.00;;;12.70;99.90;;;;;;456917;259;28449;-72
2023/10/21 08:31:53;;;;;;;3.73;1.27;;;12.80;99.90;;;;;;456958;259;28470;-74
2023/10/21 08:33:54;;;;;;;2.00;1.20;;;12.90;99.90;;;;;;456978;259;28352;-72
2023/10/21 08:35:55;;;;;;;4.53;1.10;;;12.90;99.90;;;;;;456951;259;28488;-73
2023/10/21 08:37:57;;;;;;;2.50;1.37;;;12.90;99.90;;;;;;456930;259;28307;-72
2023/10/21 08:39:58;;;;;;;1.77;1.30;;;13.00;99.90;;;;;;456914;259;28542;-71
2023/10/21 08:41:59;;;;;;;2.07;1.30;;;13.00;99.90;;;;;;456934;259;28953;-71
2023/10/21 08:44:00;;;;;;;5.40;1.60;;;13.00;99.90;;;;;;456919;259;28783;-71
2023/10/21 08:46:02;;;;;;;4.60;1.57;;;13.00;99.90;;;;;;456927;259;28796;-72
2023/10/21 08:48:03;;;;;;;1.60;1.00;;;13.10;99.90;;;;;;456937;259;28850;-72
2023/10/21 08:50:04;;;;;;;1.97;1.20;;;13.10;99.90;;;;;;456981;259;28410;-71
2023/10/21 08:52:05;;;;;;;1.60;1.10;;;13.20;99.90;;;;;;456978;259;28322;-72
2023/10/21 08:54:07;;;;;;;2.63;1.30;;;13.20;99.90;;;;;;456967;259;28480;-71
2023/10/21 08:56:08;;;;;;;4.80;1.57;;;13.30;99.90;;;;;;456978;259;28328;-73
2023/10/21 08:58:10;;;;;;;1.97;1.70;;;13.20;99.90;;;;;;456952;259;28897;-74
2023/10/21 09:00:10;;;;;;;5.07;3.07;;;13.20;99.90;;;;;;456997;259;28405;-72
2023/10/21 09:02:12;;;;;;;2.37;1.13;;;13.30;99.90;;;;;;456947;259;28567;-72
2023/10/21 09:04:17;;;;;;;3.20;1.40;;;13.30;99.90;;;;;;456968;259;28436;-72
2023/10/21 09:06:15;;;;;;;1.50;1.10;;;13.40;99.90;;;;;;456683;260;28478;-72
2023/10/21 09:08:15;;;;;;;3.33;1.20;;;13.50;99.90;;;;;;456969;259;28829;-73
2023/10/21 09:10:17;;;;;;;3.73;1.27;;;13.50;99.90;;;;;;456942;259;29047;-72
2023/10/21 09:12:18;;;;;;;5.30;1.43;;;13.50;99.90;;;;;;456935;259;29231;-72
2023/10/21 09:14:20;;;;;;;4.87;1.40;;;13.50;99.90;;;;;;456948;259;29044;-73
2023/10/21 09:16:21;;;;;;;3.80;1.10;;;13.60;99.90;;;;;;456884;259;29000;-72
2023/10/21 09:18:23;;;;;;;3.90;1.23;;;13.60;99.90;;;;;;456930;259;28671;-73
2023/10/21 09:20:23;;;;;;;3.13;1.23;;;13.60;99.90;;;;;;456950;259;28675;-72
2023/10/21 09:22:25;;;;;;;3.60;0.90;;;13.50;99.90;;;;;;456946;259;28636;-72
2023/10/21 09:24:26;;;;;;;2.40;1.10;;;13.40;99.90;;;;;;456852;259;28557;-72
2023/10/21 09:26:27;;;;;;;3.03;1.17;;;13.50;99.90;;;;;;456979;259;28731;-72
2023/10/21 09:28:28;;;;;;;2.63;1.10;;;13.50;99.90;;;;;;456954;259;28541;-73
2023/10/21 09:30:30;;;;;;;3.30;1.40;;;13.50;99.90;;;;;;456973;259;28549;-72
2023/10/21 09:32:33;;;;;;;6.17;1.50;;;13.60;99.90;;;;;;456933;259;28504;-72
2023/10/21 09:34:33;;;;;;;1.83;1.47;;;13.60;99.90;;;;;;456921;259;28598;-72
2023/10/21 09:36:33;;;;;;;2.83;1.30;;;13.60;99.90;;;;;;456924;259;29321;-72
2023/10/21 09:38:35;;;;;;;5.53;1.17;;;13.50;99.90;;;;;;456927;259;29080;-72
2023/10/21 09:40:36;;;;;;;4.67;1.60;;;13.50;99.90;;;;;;456941;259;29198;-72
2023/10/21 09:42:39;;;;;;;6.13;1.17;;;13.40;99.90;;;;;;456930;259;28640;-72
2023/10/21 09:44:39;;;;;;;2.37;1.27;;;13.30;99.90;;;;;;456876;259;28570;-72
2023/10/21 09:46:40;;;;;;;1.33;1.10;;;13.20;99.90;;;;;;456946;259;28347;-73
2023/10/21 09:48:44;;;;;;;2.50;1.07;;;13.20;99.90;;;;;;456943;255;28571;-72
2023/10/21 09:50:45;;;;;;;2.03;1.30;;;13.40;99.90;;;;;;456956;259;28538;-72
2023/10/21 09:52:46;;;;;;;3.93;2.40;;;13.60;99.90;;;;;;456919;259;28575;-72
2023/10/21 09:54:48;;;;;;;1.37;1.27;;;13.80;99.90;;;;;;456911;259;28561;-72
2023/10/21 09:56:49;;;;;;;3.13;1.23;;;13.90;99.90;;;;;;456949;259;28624;-72
2023/10/21 09:58:50;;;;;;;3.33;1.70;;;14.10;99.90;;;;;;456949;259;28717;-72
2023/10/21 10:00:51;;;;;;;3.33;1.20;;;14.10;99.90;;;;;;456919;259;29385;-71
2023/10/21 10:02:53;;;;;;;1.80;1.00;;;14.00;99.90;;;;;;456930;260;29082;-72
2023/10/21 10:04:54;;;;;;;3.73;1.03;;;14.10;99.90;;;;;;456926;259;28779;-73
2023/10/21 10:06:55;;;;;;;5.00;1.20;;;14.10;99.90;;;;;;456944;259;29358;-72
2023/10/21 10:08:56;;;;;;;2.03;1.00;;;13.90;99.90;;;;;;456941;259;29465;-72
2023/10/21 10:10:58;;;;;;;1.80;1.00;;;13.80;99.90;;;;;;456934;259;29099;-72
2023/10/21 10:13:01;;;;;;;3.50;1.20;;;13.70;99.90;;;;;;456886;259;29476;-72
2023/10/21 10:15:02;;;;;;;3.30;1.40;;;13.60;99.90;;;;;;456872;259;28680;-72
2023/10/21 10:17:05;;;;;;;4.67;1.30;;;13.50;99.90;;;;;;456868;259;28978;-72
2023/10/21 10:19:05;;;;;;;2.33;1.20;;;13.50;99.90;;;;;;456842;259;29477;-72
2023/10/21 10:21:05;;;;;;;4.40;1.20;;;13.50;99.90;;;;;;456909;259;29021;-72
2023/10/21 10:23:07;;;;;;;2.13;1.20;;;13.50;99.90;;;;;;456828;255;31054;-72
2023/10/21 10:25:10;;;;;;;3.73;1.47;;;13.70;99.90;;;;;;456936;259;28516;-72
2023/10/21 10:27:11;;;;;;;2.00;1.30;;;13.80;99.90;;;;;;456922;259;28917;-72
2023/10/21 10:29:13;;;;;;;2.20;1.20;;;13.80;99.90;;;;;;456941;259;29178;-72
2023/10/21 10:31:14;;;;;;;2.70;1.00;;;13.80;99.90;;;;;;456903;259;29066;-71